createdAt,value
2023-01-28T00:00:45.800Z,43
2023-01-28T00:01:53.541Z,44
2023-01-28T00:03:01.485Z,48
2023-01-28T00:04:08.904Z,42
2023-01-28T00:05:16.487Z,43
2023-01-28T00:06:23.226Z,40
2023-01-28T00:07:30.670Z,42
2023-01-28T00:08:38.274Z,43
2023-01-28T00:09:45.421Z,44
2023-01-28T00:10:53.747Z,38
2023-01-28T00:12:03.510Z,49
2023-01-28T00:13:10.503Z,51
2023-01-28T00:14:20.249Z,53
2023-01-28T00:15:28.732Z,48
2023-01-28T00:16:36.483Z,52
2023-01-28T00:17:43.687Z,52
2023-01-28T00:18:50.799Z,49
2023-01-28T00:19:58.072Z,52
2023-01-28T00:21:07.268Z,49
2023-01-28T00:22:15.212Z,49
2023-01-28T00:23:23.211Z,55
2023-01-28T00:24:34.143Z,54
2023-01-28T00:25:41.553Z,50
2023-01-28T00:26:48.837Z,50
2023-01-28T00:27:56.003Z,54
2023-01-28T00:29:04.217Z,50
2023-01-28T00:30:11.229Z,49
2023-01-28T00:31:18.679Z,47
2023-01-28T00:32:26.069Z,42
2023-01-28T00:33:33.149Z,46
2023-01-28T00:34:40.279Z,47
2023-01-28T00:35:47.449Z,46
2023-01-28T00:37:02.245Z,54
2023-01-28T00:38:09.557Z,48
2023-01-28T00:39:16.926Z,51
2023-01-28T00:40:24.434Z,55
2023-01-28T00:41:33.614Z,51
2023-01-28T00:42:40.940Z,56
2023-01-28T00:43:48.141Z,52
2023-01-28T00:44:55.721Z,53
2023-01-28T00:46:02.851Z,54
2023-01-28T00:47:11.049Z,49
2023-01-28T00:48:18.278Z,51
2023-01-28T00:49:26.472Z,49
2023-01-28T00:50:34.057Z,50
2023-01-28T00:51:42.982Z,47
2023-01-28T00:52:51.445Z,47
2023-01-28T00:53:58.922Z,49
2023-01-28T00:55:07.938Z,51
2023-01-28T00:56:15.197Z,51
2023-01-28T00:57:22.354Z,56
2023-01-28T00:58:29.905Z,50
2023-01-28T00:59:37.865Z,49
2023-01-28T01:00:45.365Z,48
2023-01-28T01:01:52.572Z,50
2023-01-28T01:02:59.745Z,49
2023-01-28T01:04:06.978Z,45
2023-01-28T01:05:14.423Z,44
2023-01-28T01:06:21.157Z,44
2023-01-28T01:07:29.710Z,43
2023-01-28T01:08:37.274Z,44
2023-01-28T01:09:44.837Z,48
2023-01-28T01:10:51.779Z,53
2023-01-28T01:12:00.728Z,48
2023-01-28T01:13:08.269Z,52
2023-01-28T01:14:17.324Z,49
2023-01-28T01:15:24.286Z,40
2023-01-28T01:16:32.136Z,44
2023-01-28T01:17:40.496Z,48
2023-01-28T01:18:47.795Z,46
2023-01-28T01:19:55.013Z,47
2023-01-28T01:21:02.174Z,44
2023-01-28T01:22:10.361Z,37
2023-01-28T01:23:17.677Z,39
2023-01-28T01:24:25.925Z,43
2023-01-28T01:25:34.607Z,38
2023-01-28T01:26:42.605Z,37
2023-01-28T01:27:52.369Z,36
2023-01-28T01:28:59.633Z,45
2023-01-28T01:30:06.505Z,46
2023-01-28T01:31:13.692Z,33
2023-01-28T01:32:21.573Z,40
2023-01-28T01:33:29.361Z,38
2023-01-28T01:34:36.969Z,41
2023-01-28T01:35:44.980Z,38
2023-01-28T01:36:52.189Z,51
2023-01-28T01:38:00.560Z,49
2023-01-28T01:39:07.632Z,38
2023-01-28T01:40:17.715Z,33
2023-01-28T01:41:25.606Z,35
2023-01-28T01:42:33.672Z,35
2023-01-28T01:43:41.571Z,36
2023-01-28T01:44:51.858Z,43
2023-01-28T01:46:10.380Z,43
2023-01-28T01:47:17.221Z,41
2023-01-28T01:48:24.557Z,38
2023-01-28T01:49:34.556Z,36
2023-01-28T01:50:41.713Z,45
2023-01-28T01:51:54.479Z,34
2023-01-28T01:53:01.668Z,40
2023-01-28T01:54:08.801Z,36
2023-01-28T01:55:16.716Z,37
2023-01-28T01:56:23.603Z,34
2023-01-28T01:57:30.995Z,31
2023-01-28T01:58:39.256Z,28
2023-01-28T01:59:47.143Z,29
2023-01-28T02:00:54.007Z,37
2023-01-28T02:02:01.428Z,26
2023-01-28T02:03:09.235Z,29
2023-01-28T02:04:16.723Z,31
2023-01-28T02:05:24.946Z,34
2023-01-28T02:06:32.389Z,33
2023-01-28T02:07:39.768Z,34
2023-01-28T02:08:47.228Z,33
2023-01-28T02:09:54.520Z,28
2023-01-28T02:11:01.627Z,33
2023-01-28T02:12:08.824Z,31
2023-01-28T02:13:15.896Z,33
2023-01-28T02:14:30.806Z,26
2023-01-28T02:15:30.892Z,25
2023-01-28T02:16:37.994Z,34
2023-01-28T02:17:45.926Z,25
2023-01-28T02:18:53.255Z,27
2023-01-28T02:20:01.329Z,34
2023-01-28T02:21:12.689Z,34
2023-01-28T02:22:25.713Z,38
2023-01-28T02:23:37.966Z,28
2023-01-28T02:24:52.368Z,30
2023-01-28T02:26:07.540Z,44
2023-01-28T02:27:25.147Z,25
2023-01-28T02:28:36.291Z,28
2023-01-28T02:29:49.836Z,34
2023-01-28T02:31:08.377Z,37
2023-01-28T02:32:15.503Z,29
2023-01-28T02:33:27.829Z,31
2023-01-28T02:34:38.739Z,33
2023-01-28T02:35:52.189Z,36
2023-01-28T02:36:59.448Z,36
2023-01-28T02:38:12.578Z,36
2023-01-28T02:39:22.645Z,44
2023-01-28T02:40:34.800Z,31
2023-01-28T02:41:42.017Z,27
2023-01-28T02:42:54.608Z,39
2023-01-28T02:44:01.856Z,36
2023-01-28T02:45:09.004Z,38
2023-01-28T02:46:16.177Z,35
2023-01-28T02:47:31.316Z,45
2023-01-28T02:48:43.936Z,37
2023-01-28T02:49:51.780Z,47
2023-01-28T02:51:00.743Z,39
2023-01-28T02:52:13.242Z,40
2023-01-28T02:53:31.072Z,32
2023-01-28T02:54:47.741Z,41
2023-01-28T02:56:00.181Z,42
2023-01-28T02:57:12.618Z,38
2023-01-28T02:58:27.829Z,29
2023-01-28T02:59:43.594Z,32
2023-01-28T03:00:55.967Z,39
2023-01-28T03:02:13.337Z,40
2023-01-28T03:03:27.044Z,42
2023-01-28T03:04:44.378Z,39
2023-01-28T03:05:52.323Z,36
2023-01-28T03:07:05.515Z,35
2023-01-28T03:08:12.781Z,44
2023-01-28T03:09:24.939Z,35
2023-01-28T03:10:33.292Z,40
2023-01-28T03:11:40.475Z,39
2023-01-28T03:12:58.772Z,50
2023-01-28T03:14:11.919Z,41
2023-01-28T03:15:24.064Z,46
2023-01-28T03:16:36.254Z,44
2023-01-28T03:17:48.705Z,39
2023-01-28T03:19:09.876Z,44
2023-01-28T03:20:21.975Z,46
2023-01-28T03:21:39.400Z,46
2023-01-28T03:22:51.935Z,48
2023-01-28T03:24:04.553Z,43
2023-01-28T03:25:17.213Z,42
2023-01-28T03:26:29.576Z,41
2023-01-28T03:27:42.871Z,41
2023-01-28T03:28:55.160Z,38
2023-01-28T03:30:07.602Z,38
2023-01-28T03:31:28.380Z,41
2023-01-28T03:32:41.316Z,41
2023-01-28T03:33:54.619Z,48
2023-01-28T03:35:07.775Z,41
2023-01-28T03:36:20.343Z,42
2023-01-28T03:37:33.719Z,41
2023-01-28T03:38:41.175Z,46
2023-01-28T03:39:48.263Z,42
2023-01-28T03:40:56.963Z,50
2023-01-28T03:42:07.021Z,47
2023-01-28T03:43:15.819Z,47
2023-01-28T03:44:22.736Z,49
2023-01-28T03:45:36.000Z,43
2023-01-28T03:46:43.352Z,50
2023-01-28T03:47:50.303Z,52
2023-01-28T03:48:58.824Z,44
2023-01-28T03:50:06.685Z,45
2023-01-28T03:51:15.015Z,48
2023-01-28T03:52:23.056Z,42
2023-01-28T03:53:33.245Z,43
2023-01-28T03:54:41.465Z,39
2023-01-28T03:55:49.707Z,47
2023-01-28T03:56:57.002Z,48
2023-01-28T03:58:05.104Z,40
2023-01-28T03:59:12.375Z,42
2023-01-28T04:00:20.455Z,49
2023-01-28T04:01:27.825Z,44
2023-01-28T04:02:35.559Z,50
2023-01-28T04:03:43.184Z,47
2023-01-28T04:04:50.902Z,45
2023-01-28T04:05:58.540Z,47
2023-01-28T04:07:06.739Z,44
2023-01-28T04:08:13.811Z,44
2023-01-28T04:09:21.752Z,44
2023-01-28T04:10:29.651Z,48
2023-01-28T04:11:37.145Z,47
2023-01-28T04:12:45.276Z,54
2023-01-28T04:13:53.001Z,48
2023-01-28T04:15:01.500Z,44
2023-01-28T04:16:09.998Z,48
2023-01-28T04:17:17.110Z,44
2023-01-28T04:18:25.402Z,41
2023-01-28T04:19:32.668Z,44
2023-01-28T04:20:42.121Z,43
2023-01-28T04:21:49.266Z,56
2023-01-28T04:22:58.794Z,46
2023-01-28T04:24:05.978Z,46
2023-01-28T04:25:13.623Z,44
2023-01-28T04:26:20.156Z,46
2023-01-28T04:27:27.407Z,44
2023-01-28T04:28:35.453Z,46
2023-01-28T04:29:42.898Z,50
2023-01-28T04:30:50.465Z,50
2023-01-28T04:31:57.779Z,51
2023-01-28T04:33:05.079Z,47
2023-01-28T04:34:12.098Z,48
2023-01-28T04:35:20.107Z,49
2023-01-28T04:36:27.361Z,49
2023-01-28T04:37:35.282Z,56
2023-01-28T04:38:44.058Z,57
2023-01-28T04:39:52.279Z,49
2023-01-28T04:41:00.027Z,52
2023-01-28T04:42:07.079Z,49
2023-01-28T04:43:15.032Z,54
2023-01-28T04:44:24.142Z,55
2023-01-28T04:45:30.986Z,54
2023-01-28T04:46:39.572Z,49
2023-01-28T04:47:47.575Z,50
2023-01-28T04:48:55.155Z,51
2023-01-28T04:50:05.022Z,54
2023-01-28T04:51:14.735Z,46
2023-01-28T04:52:22.741Z,51
2023-01-28T04:53:31.246Z,54
2023-01-28T04:54:40.303Z,53
2023-01-28T04:55:47.387Z,48
2023-01-28T04:56:54.560Z,48
2023-01-28T04:58:03.033Z,47
2023-01-28T04:59:10.359Z,49
2023-01-28T05:00:18.448Z,47
2023-01-28T05:01:25.469Z,50
2023-01-28T05:02:33.770Z,52
2023-01-28T05:03:41.676Z,45
2023-01-28T05:04:49.236Z,52
2023-01-28T05:05:57.023Z,50
2023-01-28T05:07:04.366Z,49
2023-01-28T05:08:12.953Z,46
2023-01-28T05:09:20.197Z,48
2023-01-28T05:10:27.140Z,55
2023-01-28T05:11:34.618Z,56
2023-01-28T05:12:42.867Z,48
2023-01-28T05:13:50.442Z,45
2023-01-28T05:14:57.979Z,46
2023-01-28T05:16:05.298Z,62
2023-01-28T05:17:12.647Z,54
2023-01-28T05:18:19.982Z,46
2023-01-28T05:19:27.244Z,58
2023-01-28T05:20:35.336Z,54
2023-01-28T05:21:43.039Z,50
2023-01-28T05:22:50.271Z,47
2023-01-28T05:23:58.297Z,45
2023-01-28T05:25:05.996Z,45
2023-01-28T05:26:13.694Z,46
2023-01-28T05:27:21.858Z,50
2023-01-28T05:28:28.927Z,51
2023-01-28T05:29:36.298Z,52
2023-01-28T05:30:43.837Z,47
2023-01-28T05:31:51.190Z,55
2023-01-28T05:33:00.531Z,53
2023-01-28T05:34:07.665Z,49
2023-01-28T05:35:16.317Z,53
2023-01-28T05:36:23.375Z,54
2023-01-28T05:37:30.699Z,53
2023-01-28T05:38:37.655Z,57
2023-01-28T05:39:44.931Z,54
2023-01-28T05:40:52.142Z,58
2023-01-28T05:41:59.709Z,58
2023-01-28T05:43:06.742Z,56
2023-01-28T05:44:13.777Z,53
2023-01-28T05:45:21.215Z,55
2023-01-28T05:46:29.029Z,54
2023-01-28T05:47:37.036Z,56
2023-01-28T05:48:44.324Z,56
2023-01-28T05:49:52.434Z,51
2023-01-28T05:51:00.439Z,53
2023-01-28T05:52:08.860Z,57
2023-01-28T05:53:16.827Z,58
2023-01-28T05:54:24.075Z,54
2023-01-28T05:55:32.429Z,53
2023-01-28T05:56:39.466Z,60
2023-01-28T05:57:47.311Z,60
2023-01-28T05:58:54.963Z,55
2023-01-28T06:00:02.867Z,61
2023-01-28T06:01:11.570Z,60
2023-01-28T06:02:20.051Z,59
2023-01-28T06:03:27.810Z,49
2023-01-28T06:04:34.798Z,54
2023-01-28T06:05:41.915Z,54
2023-01-28T06:06:49.911Z,50
2023-01-28T06:07:58.226Z,53
2023-01-28T06:09:05.369Z,45
2023-01-28T06:10:13.643Z,54
2023-01-28T06:11:20.526Z,54
2023-01-28T06:12:27.651Z,52
2023-01-28T06:13:34.807Z,56
2023-01-28T06:14:42.991Z,45
2023-01-28T06:15:51.233Z,47
2023-01-28T06:16:58.361Z,44
2023-01-28T06:18:06.572Z,44
2023-01-28T06:19:14.376Z,43
2023-01-28T06:20:24.151Z,38
2023-01-28T06:21:31.493Z,39
2023-01-28T06:22:38.936Z,40
2023-01-28T06:23:46.078Z,48
2023-01-28T06:24:53.184Z,49
2023-01-28T06:26:00.396Z,47
2023-01-28T06:27:09.179Z,40
2023-01-28T06:28:16.220Z,41
2023-01-28T06:29:23.465Z,44
2023-01-28T06:30:31.070Z,41
2023-01-28T06:31:37.942Z,39
2023-01-28T06:32:46.397Z,42
2023-01-28T06:33:53.928Z,41
2023-01-28T06:35:01.851Z,40
2023-01-28T06:36:08.964Z,39
2023-01-28T06:37:16.124Z,43
2023-01-28T06:38:23.188Z,41
2023-01-28T06:39:30.650Z,56
2023-01-28T06:40:38.187Z,60
2023-01-28T06:41:45.251Z,59
2023-01-28T06:42:53.437Z,51
2023-01-28T06:44:00.434Z,53
2023-01-28T06:45:08.128Z,42
2023-01-28T06:46:16.062Z,41
2023-01-28T06:47:23.228Z,45
2023-01-28T06:48:30.548Z,37
2023-01-28T06:49:37.613Z,41
2023-01-28T06:50:44.666Z,42
2023-01-28T06:51:51.940Z,41
2023-01-28T06:52:59.029Z,45
2023-01-28T06:54:07.678Z,47
2023-01-28T06:55:14.701Z,48
2023-01-28T06:56:21.787Z,57
2023-01-28T06:57:30.358Z,42
2023-01-28T06:58:37.615Z,34
2023-01-28T06:59:44.813Z,39
2023-01-28T07:00:52.100Z,40
2023-01-28T07:01:59.034Z,38
2023-01-28T07:03:06.359Z,38
2023-01-28T07:04:14.421Z,53
2023-01-28T07:05:23.109Z,41
2023-01-28T07:06:31.064Z,42
2023-01-28T07:07:41.533Z,41
2023-01-28T07:08:46.302Z,55
2023-01-28T07:09:53.815Z,49
2023-01-28T07:11:01.024Z,43
2023-01-28T07:12:08.362Z,44
2023-01-28T07:13:15.361Z,46
2023-01-28T07:14:22.626Z,46
2023-01-28T07:15:30.809Z,62
2023-01-28T07:16:38.267Z,48
2023-01-28T07:17:45.725Z,43
2023-01-28T07:18:52.814Z,48
2023-01-28T07:20:00.909Z,46
2023-01-28T07:21:08.776Z,56
2023-01-28T07:22:15.997Z,45
2023-01-28T07:23:23.184Z,56
2023-01-28T07:24:30.668Z,50
2023-01-28T07:25:38.308Z,53
2023-01-28T07:26:45.741Z,50
2023-01-28T07:27:54.061Z,47
2023-01-28T07:29:02.107Z,48
2023-01-28T07:30:10.278Z,62
2023-01-28T07:31:17.719Z,52
2023-01-28T07:32:24.832Z,53
2023-01-28T07:33:32.040Z,53
2023-01-28T07:34:40.068Z,57
2023-01-28T07:35:47.152Z,58
2023-01-28T07:36:56.303Z,55
2023-01-28T07:38:01.538Z,55
2023-01-28T07:39:09.600Z,60
2023-01-28T07:40:17.371Z,57
2023-01-28T07:41:24.854Z,63
2023-01-28T07:42:31.975Z,65
2023-01-28T07:43:39.941Z,63
2023-01-28T07:44:47.668Z,61
2023-01-28T07:45:56.410Z,59
2023-01-28T07:47:09.427Z,62
2023-01-28T07:48:16.592Z,69
2023-01-28T07:49:23.832Z,67
2023-01-28T07:50:31.248Z,71
2023-01-28T07:51:39.244Z,65
2023-01-28T07:52:46.325Z,63
2023-01-28T07:53:53.621Z,68
2023-01-28T07:55:02.099Z,68
2023-01-28T07:56:10.705Z,71
2023-01-28T07:57:17.780Z,74
2023-01-28T07:58:25.830Z,71
2023-01-28T07:59:33.312Z,75
2023-01-28T08:00:41.428Z,77
2023-01-28T08:01:49.505Z,75
2023-01-28T08:02:57.345Z,81
2023-01-28T08:04:05.318Z,79
2023-01-28T08:05:13.310Z,78
2023-01-28T08:06:21.259Z,82
2023-01-28T08:07:28.962Z,75
2023-01-28T08:08:37.087Z,79
2023-01-28T08:09:44.483Z,88
2023-01-28T08:10:52.534Z,80
2023-01-28T08:11:59.984Z,78
2023-01-28T08:13:07.343Z,79
2023-01-28T08:14:14.389Z,77
2023-01-28T08:15:22.343Z,78
2023-01-28T08:16:29.267Z,77
2023-01-28T08:17:36.487Z,76
2023-01-28T08:18:43.583Z,92
2023-01-28T08:19:51.615Z,85
2023-01-28T08:20:58.683Z,85
2023-01-28T08:22:06.638Z,84
2023-01-28T08:23:13.759Z,83
2023-01-28T08:24:23.676Z,92
2023-01-28T08:25:32.266Z,95
2023-01-28T08:26:39.498Z,88
2023-01-28T08:27:46.794Z,85
2023-01-28T08:28:53.710Z,86
2023-01-28T08:30:01.067Z,84
2023-01-28T08:31:08.847Z,82
2023-01-28T08:32:16.202Z,79
2023-01-28T08:33:23.329Z,88
2023-01-28T08:34:31.319Z,86
2023-01-28T08:35:39.038Z,79
2023-01-28T08:36:47.462Z,86
2023-01-28T08:37:56.070Z,83
2023-01-28T08:39:04.050Z,82
2023-01-28T08:40:11.174Z,82
2023-01-28T08:41:18.757Z,83
2023-01-28T08:42:27.114Z,80
2023-01-28T08:43:34.898Z,82
2023-01-28T08:44:42.469Z,88
2023-01-28T08:45:50.895Z,82
2023-01-28T08:46:58.398Z,75
2023-01-28T08:48:06.689Z,79
2023-01-28T08:49:15.859Z,76
2023-01-28T08:50:22.870Z,80
2023-01-28T08:51:29.952Z,78
2023-01-28T08:52:37.210Z,80
2023-01-28T08:53:45.189Z,81
2023-01-28T08:54:52.459Z,76
2023-01-28T08:55:59.566Z,79
2023-01-28T08:57:07.277Z,87
2023-01-28T08:58:15.630Z,74
2023-01-28T08:59:23.760Z,74
2023-01-28T09:00:32.098Z,77
2023-01-28T09:01:42.397Z,76
2023-01-28T09:02:49.952Z,73
2023-01-28T09:03:57.490Z,74
2023-01-28T09:05:04.893Z,81
2023-01-28T09:06:18.864Z,74
2023-01-28T09:07:27.152Z,74
2023-01-28T09:08:34.398Z,74
2023-01-28T09:09:42.624Z,85
2023-01-28T09:10:50.473Z,72
2023-01-28T09:12:01.652Z,71
2023-01-28T09:13:10.333Z,77
2023-01-28T09:14:17.972Z,80
2023-01-28T09:15:25.365Z,79
2023-01-28T09:16:33.420Z,74
2023-01-28T09:17:41.609Z,74
2023-01-28T09:18:49.627Z,74
2023-01-28T09:19:57.785Z,71
2023-01-28T09:21:05.976Z,74
2023-01-28T09:22:15.227Z,73
2023-01-28T09:23:22.170Z,72
2023-01-28T09:24:30.188Z,67
2023-01-28T09:25:37.760Z,73
2023-01-28T09:26:46.456Z,68
2023-01-28T09:27:54.948Z,65
2023-01-28T09:29:03.599Z,68
2023-01-28T09:30:10.677Z,69
2023-01-28T09:31:19.312Z,69
2023-01-28T09:32:26.442Z,67
2023-01-28T09:33:33.929Z,65
2023-01-28T09:34:41.244Z,59
2023-01-28T09:35:49.170Z,69
2023-01-28T09:36:57.362Z,65
2023-01-28T09:38:06.644Z,62
2023-01-28T09:39:13.848Z,68
2023-01-28T09:40:21.972Z,64
2023-01-28T09:41:34.372Z,54
2023-01-28T09:42:46.602Z,70
2023-01-28T09:44:02.708Z,68
2023-01-28T09:45:20.267Z,63
2023-01-28T09:46:32.609Z,54
2023-01-28T09:47:41.097Z,61
2023-01-28T09:48:49.408Z,62
2023-01-28T09:49:56.618Z,62
2023-01-28T09:51:03.924Z,56
2023-01-28T09:52:14.827Z,58
2023-01-28T09:53:22.464Z,51
2023-01-28T09:54:30.960Z,61
2023-01-28T09:55:46.219Z,53
2023-01-28T09:56:59.462Z,64
2023-01-28T09:58:11.768Z,74
2023-01-28T09:59:19.220Z,68
2023-01-28T10:00:26.304Z,63
2023-01-28T10:01:41.684Z,71
2023-01-28T10:02:59.305Z,64
2023-01-28T10:04:10.322Z,63
2023-01-28T10:05:25.436Z,60
2023-01-28T10:06:39.327Z,69
2023-01-28T10:07:50.270Z,61
2023-01-28T10:09:02.526Z,62
2023-01-28T10:10:17.968Z,49
2023-01-28T10:11:29.787Z,63
2023-01-28T10:12:44.554Z,55
2023-01-28T10:13:57.003Z,57
2023-01-28T10:15:08.048Z,57
2023-01-28T10:16:26.063Z,51
2023-01-28T10:17:38.627Z,50
2023-01-28T10:18:50.938Z,56
2023-01-28T10:20:01.021Z,48
2023-01-28T10:21:16.005Z,43
2023-01-28T10:22:32.710Z,48
2023-01-28T10:23:40.552Z,46
2023-01-28T10:24:59.076Z,53
2023-01-28T10:26:05.996Z,45
2023-01-28T10:27:19.073Z,48
2023-01-28T10:28:27.385Z,47
2023-01-28T10:29:34.911Z,46
2023-01-28T10:30:42.300Z,41
2023-01-28T10:31:49.895Z,37
2023-01-28T10:32:57.984Z,49
2023-01-28T10:34:08.157Z,42
2023-01-28T10:35:14.992Z,42
2023-01-28T10:36:22.689Z,47
2023-01-28T10:37:30.627Z,41
2023-01-28T10:38:38.691Z,38
2023-01-28T10:39:45.638Z,45
2023-01-28T10:40:54.216Z,46
2023-01-28T10:42:02.027Z,55
2023-01-28T10:43:14.227Z,32
2023-01-28T10:44:22.269Z,44
2023-01-28T10:45:34.573Z,44
2023-01-28T10:46:42.633Z,50
2023-01-28T10:47:53.588Z,46
2023-01-28T10:49:06.284Z,51
2023-01-28T10:50:14.207Z,39
2023-01-28T10:51:26.321Z,47
2023-01-28T10:52:35.535Z,43
2023-01-28T10:53:43.505Z,51
2023-01-28T10:54:50.857Z,41
2023-01-28T10:56:06.111Z,40
2023-01-28T10:57:19.753Z,37
2023-01-28T10:58:26.636Z,32
2023-01-28T10:59:34.784Z,50
2023-01-28T11:00:43.075Z,47
2023-01-28T11:01:50.112Z,42
2023-01-28T11:03:05.699Z,48
2023-01-28T11:04:14.005Z,35
2023-01-28T11:05:28.417Z,44
2023-01-28T11:06:35.425Z,38
2023-01-28T11:07:42.782Z,42
2023-01-28T11:08:50.729Z,36
2023-01-28T11:09:57.873Z,26
2023-01-28T11:11:04.908Z,31
2023-01-28T11:12:13.114Z,48
2023-01-28T11:13:28.192Z,45
2023-01-28T11:14:36.531Z,51
2023-01-28T11:15:43.831Z,51
2023-01-28T11:16:54.769Z,52
2023-01-28T11:18:03.176Z,52
2023-01-28T11:19:11.326Z,45
2023-01-28T11:20:21.169Z,37
2023-01-28T11:21:29.839Z,38
2023-01-28T11:22:37.716Z,32
2023-01-28T11:23:44.803Z,42
2023-01-28T11:24:55.080Z,39
2023-01-28T11:26:03.883Z,45
2023-01-28T11:27:13.952Z,40
2023-01-28T11:28:21.389Z,36
2023-01-28T11:29:28.324Z,34
2023-01-28T11:30:35.492Z,37
2023-01-28T11:31:43.921Z,37
2023-01-28T11:32:51.516Z,30
2023-01-28T11:34:00.649Z,36
2023-01-28T11:35:07.699Z,34
2023-01-28T11:36:14.647Z,32
2023-01-28T11:37:22.136Z,29
2023-01-28T11:38:30.334Z,29
2023-01-28T11:39:38.452Z,31
2023-01-28T11:40:46.720Z,29
2023-01-28T11:41:57.017Z,25
2023-01-28T11:43:14.716Z,25
2023-01-28T11:44:22.773Z,37
2023-01-28T11:45:30.329Z,25
2023-01-28T11:46:47.441Z,36
2023-01-28T11:48:05.228Z,37
2023-01-28T11:49:18.444Z,41
2023-01-28T11:50:31.726Z,36
2023-01-28T11:51:46.364Z,33
2023-01-28T11:53:05.692Z,31
2023-01-28T11:54:20.344Z,42
2023-01-28T11:55:37.752Z,38
2023-01-28T11:56:57.681Z,50
2023-01-28T11:58:10.072Z,44
2023-01-28T11:59:28.585Z,47
2023-01-28T12:00:41.520Z,46
2023-01-28T12:01:56.226Z,39
2023-01-28T12:03:09.233Z,39
2023-01-28T12:04:28.395Z,29
2023-01-28T12:05:51.603Z,45
2023-01-28T12:06:59.219Z,40
2023-01-28T12:08:12.443Z,41
2023-01-28T12:09:19.479Z,47
2023-01-28T12:10:31.801Z,34
2023-01-28T12:11:42.835Z,33
2023-01-28T12:13:03.407Z,51
2023-01-28T12:14:22.061Z,44
2023-01-28T12:15:39.795Z,43
2023-01-28T12:16:52.235Z,31
2023-01-28T12:17:59.473Z,39
2023-01-28T12:19:14.897Z,37
2023-01-28T12:20:28.576Z,30
2023-01-28T12:21:36.061Z,30
2023-01-28T12:22:51.579Z,30
2023-01-28T12:24:04.898Z,47
2023-01-28T12:25:17.388Z,40
2023-01-28T12:26:29.044Z,40
2023-01-28T12:27:47.437Z,37
2023-01-28T12:28:56.547Z,28
2023-01-28T12:30:07.624Z,32
2023-01-28T12:31:21.872Z,26
2023-01-28T12:32:34.491Z,43
2023-01-28T12:33:49.737Z,36
2023-01-28T12:34:57.052Z,32
2023-01-28T12:36:04.264Z,25
2023-01-28T12:37:21.924Z,33
2023-01-28T12:38:39.824Z,33
2023-01-28T12:39:47.007Z,36
2023-01-28T12:40:59.735Z,53
2023-01-28T12:42:08.596Z,43
2023-01-28T12:43:25.953Z,49
2023-01-28T12:44:44.330Z,43
2023-01-28T12:45:51.574Z,37
2023-01-28T12:47:04.209Z,41
2023-01-28T12:48:13.250Z,32
2023-01-28T12:49:23.434Z,42
2023-01-28T12:50:37.245Z,42
2023-01-28T12:51:49.515Z,32
2023-01-28T12:53:06.883Z,47
2023-01-28T12:54:22.063Z,35
2023-01-28T12:55:30.708Z,41
2023-01-28T12:56:48.439Z,30
2023-01-28T12:57:58.253Z,36
2023-01-28T12:59:06.507Z,37
2023-01-28T13:00:16.887Z,31
2023-01-28T13:01:28.739Z,34
2023-01-28T13:02:39.879Z,27
2023-01-28T13:03:48.213Z,41
2023-01-28T13:04:58.397Z,41
2023-01-28T13:06:13.619Z,49
2023-01-28T13:07:32.339Z,41
2023-01-28T13:08:42.801Z,39
2023-01-28T13:09:50.539Z,46
2023-01-28T13:10:57.830Z,51
2023-01-28T13:12:05.225Z,45
2023-01-28T13:13:12.971Z,45
2023-01-28T13:14:27.029Z,42
2023-01-28T13:15:35.171Z,33
2023-01-28T13:16:42.994Z,52
2023-01-28T13:17:51.872Z,34
2023-01-28T13:19:07.069Z,43
2023-01-28T13:20:23.530Z,44
2023-01-28T13:21:49.010Z,42
2023-01-28T13:22:49.503Z,50
2023-01-28T13:23:57.770Z,61
2023-01-28T13:25:10.746Z,53
2023-01-28T13:26:25.072Z,55
2023-01-28T13:27:44.133Z,46
2023-01-28T13:28:59.153Z,58
2023-01-28T13:30:12.131Z,54
2023-01-28T13:31:28.437Z,40
2023-01-28T13:32:35.640Z,39
2023-01-28T13:33:43.501Z,40
2023-01-28T13:34:59.655Z,44
2023-01-28T13:36:07.541Z,46
2023-01-28T13:37:24.527Z,42
2023-01-28T13:38:39.530Z,48
2023-01-28T13:39:46.901Z,58
2023-01-28T13:40:56.457Z,60
2023-01-28T13:42:06.829Z,39
2023-01-28T13:43:25.833Z,59
2023-01-28T13:44:38.259Z,58
2023-01-28T13:45:46.837Z,65
2023-01-28T13:46:59.122Z,49
2023-01-28T13:48:09.669Z,49
2023-01-28T13:49:17.611Z,57
2023-01-28T13:50:27.997Z,50
2023-01-28T13:51:43.845Z,65
2023-01-28T13:52:57.149Z,58
2023-01-28T13:54:14.511Z,71
2023-01-28T13:55:37.305Z,57
2023-01-28T13:56:30.233Z,64
2023-01-28T13:57:47.873Z,54
2023-01-28T13:59:06.557Z,65
2023-01-28T14:00:26.597Z,61
2023-01-28T14:01:43.293Z,66
2023-01-28T14:03:02.652Z,53
2023-01-28T14:04:20.941Z,61
2023-01-28T14:05:33.361Z,73
2023-01-28T14:06:45.920Z,79
2023-01-28T14:08:05.091Z,78
2023-01-28T14:09:22.595Z,62
2023-01-28T14:10:40.285Z,84
2023-01-28T14:11:58.647Z,84
2023-01-28T14:13:14.365Z,84
2023-01-28T14:14:26.542Z,81
2023-01-28T14:15:44.682Z,70
2023-01-28T14:16:59.969Z,75
2023-01-28T14:18:17.510Z,81
2023-01-28T14:19:32.665Z,86
2023-01-28T14:20:40.214Z,84
2023-01-28T14:21:47.793Z,84
2023-01-28T14:22:55.149Z,83
2023-01-28T14:24:05.677Z,100
2023-01-28T14:25:14.788Z,93
2023-01-28T14:26:25.071Z,91
2023-01-28T14:27:42.310Z,93
2023-01-28T14:28:50.853Z,95
2023-01-28T14:30:06.840Z,95
2023-01-28T14:31:24.157Z,96
2023-01-28T14:32:31.376Z,104
2023-01-28T14:33:39.303Z,102
2023-01-28T14:34:47.799Z,108
2023-01-28T14:35:54.783Z,113
2023-01-28T14:37:01.877Z,110
2023-01-28T14:38:09.191Z,108
2023-01-28T14:39:19.327Z,123
2023-01-28T14:40:33.766Z,116
2023-01-28T14:41:41.173Z,119
2023-01-28T14:42:48.393Z,114
2023-01-28T14:43:57.028Z,120
2023-01-28T14:45:04.173Z,117
2023-01-28T14:46:22.134Z,111
2023-01-28T14:47:39.693Z,120
2023-01-28T14:48:57.653Z,130
2023-01-28T14:50:11.685Z,118
2023-01-28T14:51:23.689Z,119
2023-01-28T14:52:38.481Z,107
2023-01-28T14:53:54.039Z,122
2023-01-28T14:55:04.105Z,128
2023-01-28T14:56:16.525Z,115
2023-01-28T14:57:32.096Z,107
2023-01-28T14:58:44.277Z,103
2023-01-28T14:59:54.013Z,107
2023-01-28T15:01:03.725Z,116
2023-01-28T15:02:11.763Z,102
2023-01-28T15:03:25.039Z,114
2023-01-28T15:04:29.509Z,109
2023-01-28T15:05:37.845Z,108
2023-01-28T15:06:44.893Z,103
2023-01-28T15:07:52.017Z,108
2023-01-28T15:08:59.825Z,106
2023-01-28T15:10:10.598Z,116
2023-01-28T15:11:18.100Z,114
2023-01-28T15:12:28.634Z,109
2023-01-28T15:13:38.280Z,112
2023-01-28T15:14:49.017Z,129
2023-01-28T15:15:55.216Z,120
2023-01-28T15:17:02.393Z,120
2023-01-28T15:18:09.852Z,117
2023-01-28T15:19:18.543Z,117
2023-01-28T15:20:31.839Z,114
2023-01-28T15:21:39.971Z,120
2023-01-28T15:22:48.089Z,116
2023-01-28T15:23:55.268Z,114
2023-01-28T15:25:03.510Z,109
2023-01-28T15:26:10.933Z,105
2023-01-28T15:27:18.069Z,101
2023-01-28T15:28:33.063Z,114
2023-01-28T15:29:41.212Z,111
2023-01-28T15:30:50.150Z,109
2023-01-28T15:31:57.680Z,109
2023-01-28T15:33:06.093Z,121
2023-01-28T15:34:18.507Z,116
2023-01-28T15:35:28.012Z,115
2023-01-28T15:36:35.428Z,121
2023-01-28T15:37:42.696Z,120
2023-01-28T15:38:49.980Z,113
2023-01-28T15:39:57.804Z,105
2023-01-28T15:41:08.652Z,117
2023-01-28T15:42:17.052Z,117
2023-01-28T15:43:25.486Z,111
2023-01-28T15:44:34.344Z,117
2023-01-28T15:45:41.420Z,113
2023-01-28T15:46:48.461Z,124
2023-01-28T15:47:55.782Z,117
2023-01-28T15:49:08.030Z,113
2023-01-28T15:50:19.300Z,118
2023-01-28T15:51:27.094Z,116
2023-01-28T15:52:34.668Z,114
2023-01-28T15:53:43.657Z,111
2023-01-28T15:54:50.597Z,115
2023-01-28T15:55:57.733Z,116
2023-01-28T15:57:11.171Z,113
2023-01-28T15:58:23.638Z,108
2023-01-28T15:59:30.904Z,109
2023-01-28T16:00:38.711Z,116
2023-01-28T16:01:48.205Z,104
2023-01-28T16:02:55.735Z,123
2023-01-28T16:04:02.986Z,116
2023-01-28T16:05:10.199Z,115
2023-01-28T16:06:27.879Z,113
2023-01-28T16:07:41.132Z,111
2023-01-28T16:08:48.801Z,108
2023-01-28T16:10:01.168Z,117
2023-01-28T16:11:08.853Z,124
2023-01-28T16:12:16.161Z,112
2023-01-28T16:13:24.219Z,111
2023-01-28T16:14:31.560Z,118
2023-01-28T16:15:38.648Z,123
2023-01-28T16:16:50.808Z,115
2023-01-28T16:17:58.321Z,120
2023-01-28T16:19:06.566Z,114
2023-01-28T16:20:13.953Z,106
2023-01-28T16:21:28.987Z,127
2023-01-28T16:22:36.935Z,116
2023-01-28T16:23:45.197Z,110
2023-01-28T16:24:56.648Z,122
2023-01-28T16:26:04.859Z,117
2023-01-28T16:27:24.315Z,116